Baltimore, Maryland
Traffic Map
Current Weather Conditions
Baltimore, Maryland
Broken Clouds
Broken Clouds
65°
Feels Like: 65°
Wind Chill: 65° Ceiling: 25000
Heat Index: 65° Visibility: 10mi
Dew Point: 59° Wind: 6mph
Humidity: 81% Direction: 200° (SSW)
Pressure: 30.15in Gusts: 0mph
Raw Report DataKBWI 291054Z 20005KT 10SM FEW180 BKN250 18/15 A3015 RMK AO2 SLP209 T01830150
Traffic Incident Summary
Active as of:
Severity:
Category:
InformationThere was an issue retrieving the traffic information for this location. Please try a different location or try again shortly.
Advertisements
Track Severe Weather on mobile